sensor_id;sensor_type;location;lat;lon;timestamp;temperature;humidity
11089;DHT22;5598;48.648;8.908;2023-07-13T00:00:47;19.70;85.00
11089;DHT22;5598;48.648;8.908;2023-07-13T00:03:15;19.70;84.60
11089;DHT22;5598;48.648;8.908;2023-07-13T00:05:42;19.60;84.70
11089;DHT22;5598;48.648;8.908;2023-07-13T00:08:09;19.60;84.50
11089;DHT22;5598;48.648;8.908;2023-07-13T00:10:41;19.60;84.30
11089;DHT22;5598;48.648;8.908;2023-07-13T00:13:08;19.60;84.40
11089;DHT22;5598;48.648;8.908;2023-07-13T00:15:36;19.60;84.60
11089;DHT22;5598;48.648;8.908;2023-07-13T00:18:02;19.50;84.20
11089;DHT22;5598;48.648;8.908;2023-07-13T00:20:31;19.50;84.10
11089;DHT22;5598;48.648;8.908;2023-07-13T00:22:58;19.50;84.60
11089;DHT22;5598;48.648;8.908;2023-07-13T00:25:25;19.50;84.10
11089;DHT22;5598;48.648;8.908;2023-07-13T00:27:53;19.50;84.20
11089;DHT22;5598;48.648;8.908;2023-07-13T00:30:20;19.50;84.30
11089;DHT22;5598;48.648;8.908;2023-07-13T00:32:47;19.40;83.90
11089;DHT22;5598;48.648;8.908;2023-07-13T00:35:15;19.50;83.50
11089;DHT22;5598;48.648;8.908;2023-07-13T00:37:43;19.60;83.00
11089;DHT22;5598;48.648;8.908;2023-07-13T00:40:12;19.60;83.20
11089;DHT22;5598;48.648;8.908;2023-07-13T00:42:39;19.60;83.60
11089;DHT22;5598;48.648;8.908;2023-07-13T00:48:14;19.50;86.10
11089;DHT22;5598;48.648;8.908;2023-07-13T00:50:42;19.40;86.50
11089;DHT22;5598;48.648;8.908;2023-07-13T00:53:11;19.40;86.80
11089;DHT22;5598;48.648;8.908;2023-07-13T00:55:39;19.30;86.90
11089;DHT22;5598;48.648;8.908;2023-07-13T00:58:06;19.30;86.40
11089;DHT22;5598;48.648;8.908;2023-07-13T01:00:35;19.20;86.40
11089;DHT22;5598;48.648;8.908;2023-07-13T01:03:03;19.20;86.20
11089;DHT22;5598;48.648;8.908;2023-07-13T01:05:32;19.10;86.10
11089;DHT22;5598;48.648;8.908;2023-07-13T01:07:59;19.10;86.80
11089;DHT22;5598;48.648;8.908;2023-07-13T01:10:28;19.00;87.10
11089;DHT22;5598;48.648;8.908;2023-07-13T01:12:55;19.00;87.70
11089;DHT22;5598;48.648;8.908;2023-07-13T01:15:36;18.90;87.70
11089;DHT22;5598;48.648;8.908;2023-07-13T01:18:04;18.90;87.60
11089;DHT22;5598;48.648;8.908;2023-07-13T01:20:31;18.90;87.90
11089;DHT22;5598;48.648;8.908;2023-07-13T01:23:04;18.90;88.10
11089;DHT22;5598;48.648;8.908;2023-07-13T01:25:32;18.90;87.00
11089;DHT22;5598;48.648;8.908;2023-07-13T01:28:00;18.90;87.10
11089;DHT22;5598;48.648;8.908;2023-07-13T01:30:27;18.90;86.70
11089;DHT22;5598;48.648;8.908;2023-07-13T01:32:53;18.90;87.10
11089;DHT22;5598;48.648;8.908;2023-07-13T01:35:20;18.80;87.90
11089;DHT22;5598;48.648;8.908;2023-07-13T01:37:47;18.70;88.70
11089;DHT22;5598;48.648;8.908;2023-07-13T01:40:15;18.80;87.10
11089;DHT22;5598;48.648;8.908;2023-07-13T01:42:42;18.80;87.90
11089;DHT22;5598;48.648;8.908;2023-07-13T01:45:10;18.80;87.10
11089;DHT22;5598;48.648;8.908;2023-07-13T01:47:36;18.80;87.10
11089;DHT22;5598;48.648;8.908;2023-07-13T01:50:05;18.80;87.00
11089;DHT22;5598;48.648;8.908;2023-07-13T01:52:31;18.70;87.50
11089;DHT22;5598;48.648;8.908;2023-07-13T01:54:58;18.70;88.30
11089;DHT22;5598;48.648;8.908;2023-07-13T01:57:26;18.60;89.00
11089;DHT22;5598;48.648;8.908;2023-07-13T01:59:53;18.50;89.10
11089;DHT22;5598;48.648;8.908;2023-07-13T02:02:20;18.60;89.20
11089;DHT22;5598;48.648;8.908;2023-07-13T02:04:47;18.40;88.70
11089;DHT22;5598;48.648;8.908;2023-07-13T02:07:14;18.40;89.20
11089;DHT22;5598;48.648;8.908;2023-07-13T02:09:41;18.40;89.80
11089;DHT22;5598;48.648;8.908;2023-07-13T02:12:08;18.30;89.50
11089;DHT22;5598;48.648;8.908;2023-07-13T02:14:37;18.30;89.90
11089;DHT22;5598;48.648;8.908;2023-07-13T02:17:04;18.30;90.10
11089;DHT22;5598;48.648;8.908;2023-07-13T02:19:31;18.20;90.10
11089;DHT22;5598;48.648;8.908;2023-07-13T02:21:57;18.30;90.10
11089;DHT22;5598;48.648;8.908;2023-07-13T02:24:24;18.30;88.60
11089;DHT22;5598;48.648;8.908;2023-07-13T02:26:52;18.20;89.40
11089;DHT22;5598;48.648;8.908;2023-07-13T02:29:19;18.20;88.50
11089;DHT22;5598;48.648;8.908;2023-07-13T02:31:47;18.10;89.00
11089;DHT22;5598;48.648;8.908;2023-07-13T02:34:14;18.10;89.60
11089;DHT22;5598;48.648;8.908;2023-07-13T02:36:40;18.00;89.30
11089;DHT22;5598;48.648;8.908;2023-07-13T02:39:07;18.00;89.50
11089;DHT22;5598;48.648;8.908;2023-07-13T02:41:35;17.90;89.30
11089;DHT22;5598;48.648;8.908;2023-07-13T02:44:02;17.90;89.50
11089;DHT22;5598;48.648;8.908;2023-07-13T02:46:29;17.80;90.10
11089;DHT22;5598;48.648;8.908;2023-07-13T02:48:57;17.70;90.50
11089;DHT22;5598;48.648;8.908;2023-07-13T02:51:24;17.60;90.70
11089;DHT22;5598;48.648;8.908;2023-07-13T02:53:51;17.60;90.90
11089;DHT22;5598;48.648;8.908;2023-07-13T02:56:22;17.60;90.90
11089;DHT22;5598;48.648;8.908;2023-07-13T02:58:49;17.50;91.20
11089;DHT22;5598;48.648;8.908;2023-07-13T03:01:16;17.50;91.10
11089;DHT22;5598;48.648;8.908;2023-07-13T03:03:44;17.50;91.10
11089;DHT22;5598;48.648;8.908;2023-07-13T03:06:13;17.40;91.30
11089;DHT22;5598;48.648;8.908;2023-07-13T03:08:40;17.40;91.20
11089;DHT22;5598;48.648;8.908;2023-07-13T03:11:09;17.40;91.30
11089;DHT22;5598;48.648;8.908;2023-07-13T03:13:37;17.30;91.10
11089;DHT22;5598;48.648;8.908;2023-07-13T03:16:05;17.40;91.10
11089;DHT22;5598;48.648;8.908;2023-07-13T03:18:32;17.30;91.40
11089;DHT22;5598;48.648;8.908;2023-07-13T03:20:59;17.40;91.20
11089;DHT22;5598;48.648;8.908;2023-07-13T03:23:27;17.30;91.20
11089;DHT22;5598;48.648;8.908;2023-07-13T03:26:02;17.30;91.60
11089;DHT22;5598;48.648;8.908;2023-07-13T03:28:29;17.30;91.50
11089;DHT22;5598;48.648;8.908;2023-07-13T03:31:00;17.40;91.60
11089;DHT22;5598;48.648;8.908;2023-07-13T03:33:27;17.30;92.00
11089;DHT22;5598;48.648;8.908;2023-07-13T03:35:53;17.30;92.00
11089;DHT22;5598;48.648;8.908;2023-07-13T03:38:20;17.30;92.00
11089;DHT22;5598;48.648;8.908;2023-07-13T03:40:48;17.30;92.00
11089;DHT22;5598;48.648;8.908;2023-07-13T03:43:15;17.20;92.20
11089;DHT22;5598;48.648;8.908;2023-07-13T03:45:42;17.20;92.20
11089;DHT22;5598;48.648;8.908;2023-07-13T03:48:09;17.20;92.30
11089;DHT22;5598;48.648;8.908;2023-07-13T03:50:36;17.20;92.30
11089;DHT22;5598;48.648;8.908;2023-07-13T03:53:03;17.10;92.50
11089;DHT22;5598;48.648;8.908;2023-07-13T03:55:29;17.10;92.70
11089;DHT22;5598;48.648;8.908;2023-07-13T03:58:24;17.10;92.80
11089;DHT22;5598;48.648;8.908;2023-07-13T04:00:47;17.10;92.80
11089;DHT22;5598;48.648;8.908;2023-07-13T04:03:13;17.00;93.00
11089;DHT22;5598;48.648;8.908;2023-07-13T04:05:40;16.90;93.10
11089;DHT22;5598;48.648;8.908;2023-07-13T04:08:07;17.10;92.90
11089;DHT22;5598;48.648;8.908;2023-07-13T04:10:34;17.20;92.80
11089;DHT22;5598;48.648;8.908;2023-07-13T04:13:02;17.10;92.80
11089;DHT22;5598;48.648;8.908;2023-07-13T04:15:30;17.10;93.10
11089;DHT22;5598;48.648;8.908;2023-07-13T04:17:57;17.10;92.70
11089;DHT22;5598;48.648;8.908;2023-07-13T04:20:24;17.20;92.70
11089;DHT22;5598;48.648;8.908;2023-07-13T04:22:51;17.20;92.40
11089;DHT22;5598;48.648;8.908;2023-07-13T04:25:20;17.30;92.30
11089;DHT22;5598;48.648;8.908;2023-07-13T04:27:46;17.20;92.20
11089;DHT22;5598;48.648;8.908;2023-07-13T04:30:15;17.10;92.40
11089;DHT22;5598;48.648;8.908;2023-07-13T04:32:41;17.10;92.30
11089;DHT22;5598;48.648;8.908;2023-07-13T04:35:08;17.00;92.40
11089;DHT22;5598;48.648;8.908;2023-07-13T04:37:35;17.00;93.00
11089;DHT22;5598;48.648;8.908;2023-07-13T04:40:02;17.10;93.40
11089;DHT22;5598;48.648;8.908;2023-07-13T04:42:30;16.90;93.60
11089;DHT22;5598;48.648;8.908;2023-07-13T04:44:56;16.90;93.60
11089;DHT22;5598;48.648;8.908;2023-07-13T04:47:25;16.70;93.60
11089;DHT22;5598;48.648;8.908;2023-07-13T04:49:52;16.70;93.70
11089;DHT22;5598;48.648;8.908;2023-07-13T04:52:18;16.70;94.00
11089;DHT22;5598;48.648;8.908;2023-07-13T04:54:45;16.70;94.10
11089;DHT22;5598;48.648;8.908;2023-07-13T04:57:12;16.70;94.10
11089;DHT22;5598;48.648;8.908;2023-07-13T04:59:39;16.70;93.90
11089;DHT22;5598;48.648;8.908;2023-07-13T05:02:06;16.70;94.00
11089;DHT22;5598;48.648;8.908;2023-07-13T05:04:34;16.80;94.10
11089;DHT22;5598;48.648;8.908;2023-07-13T05:07:01;16.80;94.30
11089;DHT22;5598;48.648;8.908;2023-07-13T05:09:27;16.90;94.60
11089;DHT22;5598;48.648;8.908;2023-07-13T05:11:54;16.80;94.80
11089;DHT22;5598;48.648;8.908;2023-07-13T05:14:21;17.00;95.20
11089;DHT22;5598;48.648;8.908;2023-07-13T05:16:48;17.10;95.10
11089;DHT22;5598;48.648;8.908;2023-07-13T05:19:15;17.10;94.50
11089;DHT22;5598;48.648;8.908;2023-07-13T05:21:43;17.30;93.70
11089;DHT22;5598;48.648;8.908;2023-07-13T05:24:09;17.30;93.50
11089;DHT22;5598;48.648;8.908;2023-07-13T05:26:37;17.30;93.30
11089;DHT22;5598;48.648;8.908;2023-07-13T05:29:04;17.30;93.50
11089;DHT22;5598;48.648;8.908;2023-07-13T05:31:30;17.20;94.50
11089;DHT22;5598;48.648;8.908;2023-07-13T05:33:57;17.30;94.80
11089;DHT22;5598;48.648;8.908;2023-07-13T05:36:24;17.50;95.30
11089;DHT22;5598;48.648;8.908;2023-07-13T05:38:52;17.40;95.50
11089;DHT22;5598;48.648;8.908;2023-07-13T05:41:19;17.60;95.90
11089;DHT22;5598;48.648;8.908;2023-07-13T05:43:46;17.60;96.00
11089;DHT22;5598;48.648;8.908;2023-07-13T05:46:12;17.50;95.90
11089;DHT22;5598;48.648;8.908;2023-07-13T05:48:39;17.60;95.80
11089;DHT22;5598;48.648;8.908;2023-07-13T05:51:06;17.60;95.40
11089;DHT22;5598;48.648;8.908;2023-07-13T05:53:34;17.60;95.20
11089;DHT22;5598;48.648;8.908;2023-07-13T05:56:02;17.50;95.10
11089;DHT22;5598;48.648;8.908;2023-07-13T05:58:29;17.60;95.30
11089;DHT22;5598;48.648;8.908;2023-07-13T06:01:00;17.60;95.50
11089;DHT22;5598;48.648;8.908;2023-07-13T06:03:27;17.60;95.20
11089;DHT22;5598;48.648;8.908;2023-07-13T06:05:54;17.80;94.50
11089;DHT22;5598;48.648;8.908;2023-07-13T06:08:21;17.90;93.80
11089;DHT22;5598;48.648;8.908;2023-07-13T06:10:48;17.90;93.70
11089;DHT22;5598;48.648;8.908;2023-07-13T06:13:16;18.00;93.50
11089;DHT22;5598;48.648;8.908;2023-07-13T06:15:48;18.10;93.10
11089;DHT22;5598;48.648;8.908;2023-07-13T06:18:14;18.20;93.00
11089;DHT22;5598;48.648;8.908;2023-07-13T06:20:41;18.50;92.60
11089;DHT22;5598;48.648;8.908;2023-07-13T06:23:08;18.40;90.80
11089;DHT22;5598;48.648;8.908;2023-07-13T06:25:35;18.50;90.10
11089;DHT22;5598;48.648;8.908;2023-07-13T06:28:02;18.70;89.30
11089;DHT22;5598;48.648;8.908;2023-07-13T06:30:30;18.70;86.20
11089;DHT22;5598;48.648;8.908;2023-07-13T06:32:57;19.00;86.50
11089;DHT22;5598;48.648;8.908;2023-07-13T06:35:25;18.90;83.90
11089;DHT22;5598;48.648;8.908;2023-07-13T06:37:54;18.90;85.80
11089;DHT22;5598;48.648;8.908;2023-07-13T06:40:27;18.90;85.50
11089;DHT22;5598;48.648;8.908;2023-07-13T06:42:56;19.00;85.50
11089;DHT22;5598;48.648;8.908;2023-07-13T06:45:22;19.00;84.10
11089;DHT22;5598;48.648;8.908;2023-07-13T06:47:51;19.20;84.30
11089;DHT22;5598;48.648;8.908;2023-07-13T06:50:18;19.20;83.80
11089;DHT22;5598;48.648;8.908;2023-07-13T06:52:44;19.30;83.20
11089;DHT22;5598;48.648;8.908;2023-07-13T06:55:11;19.40;82.30
11089;DHT22;5598;48.648;8.908;2023-07-13T06:57:38;19.50;81.80
11089;DHT22;5598;48.648;8.908;2023-07-13T07:00:06;19.40;81.60
11089;DHT22;5598;48.648;8.908;2023-07-13T07:02:35;19.40;80.90
11089;DHT22;5598;48.648;8.908;2023-07-13T07:05:04;19.50;83.00
11089;DHT22;5598;48.648;8.908;2023-07-13T07:07:31;19.50;81.20
11089;DHT22;5598;48.648;8.908;2023-07-13T07:09:57;19.60;78.20
11089;DHT22;5598;48.648;8.908;2023-07-13T07:12:24;19.60;78.60
11089;DHT22;5598;48.648;8.908;2023-07-13T07:14:51;19.70;79.00
11089;DHT22;5598;48.648;8.908;2023-07-13T07:17:18;19.60;78.90
11089;DHT22;5598;48.648;8.908;2023-07-13T07:19:45;19.70;81.40
11089;DHT22;5598;48.648;8.908;2023-07-13T07:22:13;19.70;79.40
11089;DHT22;5598;48.648;8.908;2023-07-13T07:24:40;19.70;79.40
11089;DHT22;5598;48.648;8.908;2023-07-13T07:27:06;19.70;79.90
11089;DHT22;5598;48.648;8.908;2023-07-13T07:29:33;19.70;78.30
11089;DHT22;5598;48.648;8.908;2023-07-13T07:32:00;19.80;78.90
11089;DHT22;5598;48.648;8.908;2023-07-13T07:34:27;19.90;78.60
11089;DHT22;5598;48.648;8.908;2023-07-13T07:36:54;20.00;78.40
11089;DHT22;5598;48.648;8.908;2023-07-13T07:39:22;20.00;77.00
11089;DHT22;5598;48.648;8.908;2023-07-13T07:41:49;20.10;78.30
11089;DHT22;5598;48.648;8.908;2023-07-13T07:44:16;20.20;74.80
11089;DHT22;5598;48.648;8.908;2023-07-13T07:46:43;20.10;76.20
11089;DHT22;5598;48.648;8.908;2023-07-13T07:49:10;20.20;77.10
11089;DHT22;5598;48.648;8.908;2023-07-13T07:51:37;20.40;78.30
11089;DHT22;5598;48.648;8.908;2023-07-13T07:54:04;20.40;75.80
11089;DHT22;5598;48.648;8.908;2023-07-13T07:56:33;20.50;75.80
11089;DHT22;5598;48.648;8.908;2023-07-13T07:58:59;20.50;77.20
11089;DHT22;5598;48.648;8.908;2023-07-13T08:01:26;20.60;77.80
11089;DHT22;5598;48.648;8.908;2023-07-13T08:03:53;20.70;73.40
11089;DHT22;5598;48.648;8.908;2023-07-13T08:06:20;20.80;75.20
11089;DHT22;5598;48.648;8.908;2023-07-13T08:08:47;20.90;74.60
11089;DHT22;5598;48.648;8.908;2023-07-13T08:11:14;21.10;73.40
11089;DHT22;5598;48.648;8.908;2023-07-13T08:13:42;21.20;73.50
11089;DHT22;5598;48.648;8.908;2023-07-13T08:16:10;21.50;72.10
11089;DHT22;5598;48.648;8.908;2023-07-13T08:18:37;21.80;69.10
11089;DHT22;5598;48.648;8.908;2023-07-13T08:21:04;22.00;69.60
11089;DHT22;5598;48.648;8.908;2023-07-13T08:23:31;22.20;68.20
11089;DHT22;5598;48.648;8.908;2023-07-13T08:25:58;22.30;67.00
11089;DHT22;5598;48.648;8.908;2023-07-13T08:28:27;22.40;68.00
11089;DHT22;5598;48.648;8.908;2023-07-13T08:30:59;22.60;67.50
11089;DHT22;5598;48.648;8.908;2023-07-13T08:33:26;22.90;66.20
11089;DHT22;5598;48.648;8.908;2023-07-13T08:35:53;23.10;67.60
11089;DHT22;5598;48.648;8.908;2023-07-13T08:38:20;23.40;65.60
11089;DHT22;5598;48.648;8.908;2023-07-13T08:40:50;23.80;63.70
11089;DHT22;5598;48.648;8.908;2023-07-13T08:43:20;24.00;61.20
11089;DHT22;5598;48.648;8.908;2023-07-13T08:45:52;24.40;62.00
11089;DHT22;5598;48.648;8.908;2023-07-13T08:48:26;24.80;59.80
11089;DHT22;5598;48.648;8.908;2023-07-13T08:50:57;25.10;61.30
11089;DHT22;5598;48.648;8.908;2023-07-13T08:53:30;25.50;61.70
11089;DHT22;5598;48.648;8.908;2023-07-13T08:55:59;25.90;58.60
11089;DHT22;5598;48.648;8.908;2023-07-13T08:58:27;25.90;56.70
11089;DHT22;5598;48.648;8.908;2023-07-13T09:01:00;25.80;58.40
11089;DHT22;5598;48.648;8.908;2023-07-13T09:03:36;25.80;58.70
11089;DHT22;5598;48.648;8.908;2023-07-13T09:06:06;25.90;58.40
11089;DHT22;5598;48.648;8.908;2023-07-13T09:08:46;25.70;58.90
11089;DHT22;5598;48.648;8.908;2023-07-13T09:11:26;25.60;59.50
11089;DHT22;5598;48.648;8.908;2023-07-13T09:13:59;25.60;58.10
11089;DHT22;5598;48.648;8.908;2023-07-13T09:16:29;25.80;60.10
11089;DHT22;5598;48.648;8.908;2023-07-13T09:19:02;26.20;58.10
11089;DHT22;5598;48.648;8.908;2023-07-13T09:21:32;26.30;57.70
11089;DHT22;5598;48.648;8.908;2023-07-13T09:24:27;26.50;59.70
11089;DHT22;5598;48.648;8.908;2023-07-13T09:26:55;26.50;57.70
11089;DHT22;5598;48.648;8.908;2023-07-13T09:29:29;26.60;57.10
11089;DHT22;5598;48.648;8.908;2023-07-13T09:31:57;26.80;59.60
11089;DHT22;5598;48.648;8.908;2023-07-13T09:34:28;27.10;60.90
11089;DHT22;5598;48.648;8.908;2023-07-13T09:36:56;27.30;59.00
11089;DHT22;5598;48.648;8.908;2023-07-13T09:39:26;27.60;59.20
11089;DHT22;5598;48.648;8.908;2023-07-13T09:41:59;27.90;58.10
11089;DHT22;5598;48.648;8.908;2023-07-13T09:44:30;27.90;57.70
11089;DHT22;5598;48.648;8.908;2023-07-13T09:46:58;27.80;57.30
11089;DHT22;5598;48.648;8.908;2023-07-13T09:49:27;27.50;58.10
11089;DHT22;5598;48.648;8.908;2023-07-13T09:51:59;27.50;58.70
11089;DHT22;5598;48.648;8.908;2023-07-13T09:54:28;27.40;59.10
11089;DHT22;5598;48.648;8.908;2023-07-13T09:56:55;27.40;58.00
11089;DHT22;5598;48.648;8.908;2023-07-13T09:59:26;27.30;58.90
11089;DHT22;5598;48.648;8.908;2023-07-13T10:01:53;27.10;59.40
11089;DHT22;5598;48.648;8.908;2023-07-13T10:04:26;27.00;58.40
11089;DHT22;5598;48.648;8.908;2023-07-13T10:07:04;26.90;58.20
11089;DHT22;5598;48.648;8.908;2023-07-13T10:09:31;26.80;58.10
11089;DHT22;5598;48.648;8.908;2023-07-13T10:11:58;26.90;57.90
11089;DHT22;5598;48.648;8.908;2023-07-13T10:14:25;27.10;57.60
11089;DHT22;5598;48.648;8.908;2023-07-13T10:16:56;27.10;56.00
11089;DHT22;5598;48.648;8.908;2023-07-13T10:19:31;27.10;57.10
11089;DHT22;5598;48.648;8.908;2023-07-13T10:22:01;27.20;57.80
11089;DHT22;5598;48.648;8.908;2023-07-13T10:24:31;27.20;56.30
11089;DHT22;5598;48.648;8.908;2023-07-13T10:27:01;27.10;55.90
11089;DHT22;5598;48.648;8.908;2023-07-13T10:29:34;27.10;56.00
11089;DHT22;5598;48.648;8.908;2023-07-13T10:32:03;27.10;55.20
11089;DHT22;5598;48.648;8.908;2023-07-13T10:34:31;27.20;54.80
11089;DHT22;5598;48.648;8.908;2023-07-13T10:37:00;26.90;54.20
11089;DHT22;5598;48.648;8.908;2023-07-13T10:39:28;26.70;54.90
11089;DHT22;5598;48.648;8.908;2023-07-13T10:42:00;26.70;54.60
11089;DHT22;5598;48.648;8.908;2023-07-13T10:44:30;26.70;54.80
11089;DHT22;5598;48.648;8.908;2023-07-13T10:47:00;26.70;54.40
11089;DHT22;5598;48.648;8.908;2023-07-13T10:49:28;26.70;55.40
11089;DHT22;5598;48.648;8.908;2023-07-13T10:51:56;26.70;53.10
11089;DHT22;5598;48.648;8.908;2023-07-13T10:54:30;26.80;54.40
11089;DHT22;5598;48.648;8.908;2023-07-13T10:57:16;27.00;52.30
11089;DHT22;5598;48.648;8.908;2023-07-13T10:59:46;27.10;52.80
11089;DHT22;5598;48.648;8.908;2023-07-13T11:02:22;27.30;53.20
11089;DHT22;5598;48.648;8.908;2023-07-13T11:04:53;27.60;53.70
11089;DHT22;5598;48.648;8.908;2023-07-13T11:07:22;27.90;51.50
11089;DHT22;5598;48.648;8.908;2023-07-13T11:09:52;28.00;53.80
11089;DHT22;5598;48.648;8.908;2023-07-13T11:15:11;28.40;53.30
11089;DHT22;5598;48.648;8.908;2023-07-13T11:17:49;28.80;54.60
11089;DHT22;5598;48.648;8.908;2023-07-13T11:20:34;29.10;51.10
11089;DHT22;5598;48.648;8.908;2023-07-13T11:23:15;29.50;49.60
11089;DHT22;5598;48.648;8.908;2023-07-13T11:25:45;29.80;48.50
11089;DHT22;5598;48.648;8.908;2023-07-13T11:28:17;29.90;49.30
11089;DHT22;5598;48.648;8.908;2023-07-13T11:30:47;29.80;47.70
11089;DHT22;5598;48.648;8.908;2023-07-13T11:33:17;29.60;45.70
11089;DHT22;5598;48.648;8.908;2023-07-13T11:35:51;29.30;45.80
11089;DHT22;5598;48.648;8.908;2023-07-13T11:38:21;29.10;48.20
11089;DHT22;5598;48.648;8.908;2023-07-13T11:40:53;29.10;50.10
11089;DHT22;5598;48.648;8.908;2023-07-13T11:43:20;29.30;49.70
11089;DHT22;5598;48.648;8.908;2023-07-13T11:45:49;29.40;48.00
11089;DHT22;5598;48.648;8.908;2023-07-13T11:48:21;29.70;48.30
11089;DHT22;5598;48.648;8.908;2023-07-13T11:50:54;30.20;49.40
11089;DHT22;5598;48.648;8.908;2023-07-13T11:53:22;30.60;47.80
11089;DHT22;5598;48.648;8.908;2023-07-13T11:55:51;31.00;47.60
11089;DHT22;5598;48.648;8.908;2023-07-13T11:58:22;31.30;47.10
11089;DHT22;5598;48.648;8.908;2023-07-13T12:00:50;31.30;45.90
11089;DHT22;5598;48.648;8.908;2023-07-13T12:03:21;31.20;48.20
11089;DHT22;5598;48.648;8.908;2023-07-13T12:05:58;30.90;48.10
11089;DHT22;5598;48.648;8.908;2023-07-13T12:08:25;30.50;45.90
11089;DHT22;5598;48.648;8.908;2023-07-13T12:11:05;30.30;45.40
11089;DHT22;5598;48.648;8.908;2023-07-13T12:13:37;30.20;45.00
11089;DHT22;5598;48.648;8.908;2023-07-13T12:16:13;29.80;46.60
11089;DHT22;5598;48.648;8.908;2023-07-13T12:18:42;29.80;45.00
11089;DHT22;5598;48.648;8.908;2023-07-13T12:21:14;29.70;46.80
11089;DHT22;5598;48.648;8.908;2023-07-13T12:23:44;29.70;46.70
11089;DHT22;5598;48.648;8.908;2023-07-13T12:26:12;29.80;45.50
11089;DHT22;5598;48.648;8.908;2023-07-13T12:28:46;29.80;45.60
11089;DHT22;5598;48.648;8.908;2023-07-13T12:31:31;29.70;44.50
11089;DHT22;5598;48.648;8.908;2023-07-13T12:34:00;29.70;43.70
11089;DHT22;5598;48.648;8.908;2023-07-13T12:36:31;29.60;44.60
11089;DHT22;5598;48.648;8.908;2023-07-13T12:39:02;29.60;44.40
11089;DHT22;5598;48.648;8.908;2023-07-13T12:41:32;29.50;45.60
11089;DHT22;5598;48.648;8.908;2023-07-13T12:44:00;29.60;43.30
11089;DHT22;5598;48.648;8.908;2023-07-13T12:46:27;29.40;42.90
11089;DHT22;5598;48.648;8.908;2023-07-13T12:48:57;29.30;44.40
11089;DHT22;5598;48.648;8.908;2023-07-13T12:51:26;29.10;44.30
11089;DHT22;5598;48.648;8.908;2023-07-13T12:53:57;29.10;46.80
11089;DHT22;5598;48.648;8.908;2023-07-13T12:56:27;28.90;45.70
11089;DHT22;5598;48.648;8.908;2023-07-13T12:59:00;28.80;46.30
11089;DHT22;5598;48.648;8.908;2023-07-13T13:01:28;28.50;45.10
11089;DHT22;5598;48.648;8.908;2023-07-13T13:03:55;28.30;44.50
11089;DHT22;5598;48.648;8.908;2023-07-13T13:06:25;28.20;46.60
11089;DHT22;5598;48.648;8.908;2023-07-13T13:08:54;28.20;46.40
11089;DHT22;5598;48.648;8.908;2023-07-13T13:11:23;28.30;45.80
11089;DHT22;5598;48.648;8.908;2023-07-13T13:13:51;28.50;48.00
11089;DHT22;5598;48.648;8.908;2023-07-13T13:16:22;28.70;50.30
11089;DHT22;5598;48.648;8.908;2023-07-13T13:18:50;29.00;49.50
11089;DHT22;5598;48.648;8.908;2023-07-13T13:21:18;29.10;48.10
11089;DHT22;5598;48.648;8.908;2023-07-13T13:23:45;29.10;48.30
11089;DHT22;5598;48.648;8.908;2023-07-13T13:26:14;29.20;50.30
11089;DHT22;5598;48.648;8.908;2023-07-13T13:28:41;29.30;49.80
11089;DHT22;5598;48.648;8.908;2023-07-13T13:31:09;29.40;49.00
11089;DHT22;5598;48.648;8.908;2023-07-13T13:33:41;29.40;47.20
11089;DHT22;5598;48.648;8.908;2023-07-13T13:36:14;29.30;48.10
11089;DHT22;5598;48.648;8.908;2023-07-13T13:38:42;29.00;45.70
11089;DHT22;5598;48.648;8.908;2023-07-13T13:41:10;28.70;48.50
11089;DHT22;5598;48.648;8.908;2023-07-13T13:43:39;28.70;47.00
11089;DHT22;5598;48.648;8.908;2023-07-13T13:46:13;28.70;46.70
11089;DHT22;5598;48.648;8.908;2023-07-13T13:48:41;28.70;50.90
11089;DHT22;5598;48.648;8.908;2023-07-13T13:51:13;28.80;51.10
11089;DHT22;5598;48.648;8.908;2023-07-13T13:53:41;28.90;51.00
11089;DHT22;5598;48.648;8.908;2023-07-13T13:56:08;29.00;51.00
11089;DHT22;5598;48.648;8.908;2023-07-13T13:58:35;29.00;51.10
11089;DHT22;5598;48.648;8.908;2023-07-13T14:01:02;29.00;50.50
11089;DHT22;5598;48.648;8.908;2023-07-13T14:03:31;29.20;51.10
11089;DHT22;5598;48.648;8.908;2023-07-13T14:06:00;29.20;49.20
11089;DHT22;5598;48.648;8.908;2023-07-13T14:08:27;29.30;46.60
11089;DHT22;5598;48.648;8.908;2023-07-13T14:10:56;29.20;46.00
11089;DHT22;5598;48.648;8.908;2023-07-13T14:13:27;29.30;47.30
11089;DHT22;5598;48.648;8.908;2023-07-13T14:15:54;29.20;46.10
11089;DHT22;5598;48.648;8.908;2023-07-13T14:18:21;29.20;47.50
11089;DHT22;5598;48.648;8.908;2023-07-13T14:20:49;29.30;50.20
11089;DHT22;5598;48.648;8.908;2023-07-13T14:23:19;29.30;46.80
11089;DHT22;5598;48.648;8.908;2023-07-13T14:25:46;29.20;49.40
11089;DHT22;5598;48.648;8.908;2023-07-13T14:28:22;29.20;51.10
11089;DHT22;5598;48.648;8.908;2023-07-13T14:30:50;29.20;51.60
11089;DHT22;5598;48.648;8.908;2023-07-13T14:33:17;29.30;51.20
11089;DHT22;5598;48.648;8.908;2023-07-13T14:35:44;29.40;53.10
11089;DHT22;5598;48.648;8.908;2023-07-13T14:38:13;29.20;51.90
11089;DHT22;5598;48.648;8.908;2023-07-13T14:40:43;29.10;52.70
11089;DHT22;5598;48.648;8.908;2023-07-13T14:43:11;29.00;52.80
11089;DHT22;5598;48.648;8.908;2023-07-13T14:45:41;28.80;52.40
11089;DHT22;5598;48.648;8.908;2023-07-13T14:48:16;28.70;52.50
11089;DHT22;5598;48.648;8.908;2023-07-13T14:50:44;28.50;52.50
11089;DHT22;5598;48.648;8.908;2023-07-13T14:53:12;28.50;53.20
11089;DHT22;5598;48.648;8.908;2023-07-13T14:55:39;28.50;54.60
11089;DHT22;5598;48.648;8.908;2023-07-13T14:58:09;28.60;54.10
11089;DHT22;5598;48.648;8.908;2023-07-13T15:00:36;28.70;53.60
11089;DHT22;5598;48.648;8.908;2023-07-13T15:03:04;28.60;53.60
11089;DHT22;5598;48.648;8.908;2023-07-13T15:05:32;28.60;52.70
11089;DHT22;5598;48.648;8.908;2023-07-13T15:08:01;28.60;53.10
11089;DHT22;5598;48.648;8.908;2023-07-13T15:10:30;28.60;53.50
11089;DHT22;5598;48.648;8.908;2023-07-13T15:12:59;28.50;51.70
11089;DHT22;5598;48.648;8.908;2023-07-13T15:15:29;28.50;52.30
11089;DHT22;5598;48.648;8.908;2023-07-13T15:17:56;28.50;52.90
11089;DHT22;5598;48.648;8.908;2023-07-13T15:20:26;28.50;51.60
11089;DHT22;5598;48.648;8.908;2023-07-13T15:22:54;28.50;53.70
11089;DHT22;5598;48.648;8.908;2023-07-13T15:25:23;28.50;53.00
11089;DHT22;5598;48.648;8.908;2023-07-13T15:27:50;28.40;53.40
11089;DHT22;5598;48.648;8.908;2023-07-13T15:30:17;28.50;52.40
11089;DHT22;5598;48.648;8.908;2023-07-13T15:32:46;28.30;50.60
11089;DHT22;5598;48.648;8.908;2023-07-13T15:35:15;28.00;52.20
11089;DHT22;5598;48.648;8.908;2023-07-13T15:37:43;27.80;53.10
11089;DHT22;5598;48.648;8.908;2023-07-13T15:40:10;27.70;53.00
11089;DHT22;5598;48.648;8.908;2023-07-13T15:42:38;27.70;54.30
11089;DHT22;5598;48.648;8.908;2023-07-13T15:45:18;27.70;54.20
11089;DHT22;5598;48.648;8.908;2023-07-13T15:47:47;27.50;53.30
11089;DHT22;5598;48.648;8.908;2023-07-13T15:50:15;27.40;54.30
11089;DHT22;5598;48.648;8.908;2023-07-13T15:52:45;27.30;53.40
11089;DHT22;5598;48.648;8.908;2023-07-13T15:55:13;27.30;54.30
11089;DHT22;5598;48.648;8.908;2023-07-13T15:57:47;27.30;53.70
11089;DHT22;5598;48.648;8.908;2023-07-13T16:00:19;27.30;53.80